createdAt,value
2022-10-13T00:06:12.084Z,10.13
2022-10-13T00:09:49.581Z,10.00
2022-10-13T00:13:07.065Z,15.32
2022-10-13T00:16:15.499Z,6.20
2022-10-13T00:22:49.201Z,12.68
2022-10-13T00:26:30.677Z,7.22
2022-10-13T00:36:25.300Z,6.15
2022-10-13T00:40:02.010Z,7.43
2022-10-13T00:43:39.483Z,7.90
2022-10-13T00:53:37.521Z,10.65
2022-10-13T01:01:01.695Z,9.55
2022-10-13T01:04:49.052Z,7.93
2022-10-13T01:08:36.881Z,7.95
2022-10-13T01:12:10.188Z,10.45
2022-10-13T01:15:33.872Z,11.70
2022-10-13T01:18:57.473Z,10.45
2022-10-13T01:22:32.377Z,8.13
2022-10-13T01:26:11.932Z,11.30
2022-10-13T01:29:53.122Z,8.52
2022-10-13T01:37:16.786Z,10.02
2022-10-13T01:40:52.613Z,9.57
2022-10-13T01:44:21.745Z,11.07
2022-10-13T01:54:42.599Z,9.90
2022-10-13T02:05:34.316Z,15.52
2022-10-13T02:09:05.526Z,12.63
2022-10-13T02:12:16.650Z,11.20
2022-10-13T02:20:33.581Z,11.30
2022-10-13T02:23:00.835Z,13.65
2022-10-13T02:30:03.524Z,12.10
2022-10-13T02:33:44.746Z,14.07
2022-10-13T02:37:03.106Z,24.20
2022-10-13T02:44:22.811Z,10.90
2022-10-13T02:48:05.488Z,15.60
2022-10-13T02:57:32.805Z,14.77
2022-10-13T03:05:49.942Z,10.45
2022-10-13T03:08:19.631Z,13.05
2022-10-13T03:10:48.071Z,14.00
2022-10-13T03:13:16.282Z,18.90
2022-10-13T03:15:44.554Z,16.73
2022-10-13T03:18:12.901Z,16.83
2022-10-13T03:20:41.669Z,12.05
2022-10-13T03:23:16.176Z,15.75
2022-10-13T03:25:45.817Z,16.88
2022-10-13T03:28:14.140Z,18.58
2022-10-13T03:31:37.985Z,15.77
2022-10-13T03:34:57.987Z,17.83
2022-10-13T03:38:26.999Z,17.30
2022-10-13T03:42:23.190Z,16.55
2022-10-13T03:49:45.327Z,18.35
2022-10-13T03:52:51.033Z,19.48
2022-10-13T03:56:02.708Z,15.65
2022-10-13T03:59:24.614Z,18.15
2022-10-13T04:06:27.324Z,13.45
2022-10-13T04:09:32.035Z,17.98
2022-10-13T04:12:24.614Z,18.67
2022-10-13T04:15:32.494Z,12.07
2022-10-13T04:19:01.280Z,16.95
2022-10-13T04:26:03.080Z,11.25
2022-10-13T04:29:29.960Z,16.75
2022-10-13T04:36:26.596Z,15.52
2022-10-13T04:39:55.927Z,13.95
2022-10-13T04:43:15.106Z,14.57
2022-10-13T04:49:51.987Z,14.82
2022-10-13T04:53:48.964Z,19.05
2022-10-13T04:57:18.879Z,16.95
2022-10-13T05:00:20.310Z,22.08
2022-10-13T05:03:38.572Z,17.63
2022-10-13T05:10:34.634Z,15.30
2022-10-13T05:14:08.658Z,12.80
2022-10-13T05:17:35.254Z,15.90
2022-10-13T05:20:52.736Z,16.92
2022-10-13T05:29:15.106Z,20.38
2022-10-13T05:31:14.428Z,18.10
2022-10-13T05:41:31.788Z,17.30
2022-10-13T05:45:11.140Z,22.45
2022-10-13T05:48:20.421Z,20.80
2022-10-13T05:51:50.973Z,19.13
2022-10-13T05:55:07.601Z,17.95
2022-10-13T05:58:15.283Z,17.55
2022-10-13T06:06:07.254Z,19.60
2022-10-13T06:09:01.295Z,16.67
2022-10-13T06:12:11.627Z,18.55
2022-10-13T06:19:20.092Z,23.85
2022-10-13T06:22:27.691Z,13.90
2022-10-13T06:25:45.719Z,19.65
2022-10-13T06:29:04.477Z,17.90
2022-10-13T06:36:19.207Z,14.35
2022-10-13T06:43:19.194Z,15.80
2022-10-13T06:46:48.102Z,16.92
2022-10-13T06:53:51.733Z,22.27
2022-10-13T06:55:04.372Z,23.50
2022-10-13T06:57:24.586Z,22.65
2022-10-13T07:00:47.935Z,16.02
2022-10-13T07:03:54.424Z,16.83
2022-10-13T07:07:13.950Z,19.88
2022-10-13T07:10:40.279Z,19.27
2022-10-13T07:14:08.861Z,20.13
2022-10-13T07:21:04.739Z,18.40
2022-10-13T07:24:58.842Z,18.75
2022-10-13T07:28:57.268Z,15.73
2022-10-13T07:35:47.777Z,22.48
2022-10-13T07:39:13.361Z,20.00
2022-10-13T07:42:40.043Z,19.33
2022-10-13T07:46:11.692Z,18.70
2022-10-13T07:54:13.068Z,17.42
2022-10-13T07:56:37.503Z,23.92
2022-10-13T08:00:46.061Z,21.00
2022-10-13T08:03:33.612Z,16.00
2022-10-13T08:17:48.991Z,21.95
2022-10-13T08:24:48.912Z,19.90
2022-10-13T08:37:00.562Z,17.95
2022-10-13T08:38:52.509Z,17.60
2022-10-13T08:42:26.308Z,21.25
2022-10-13T08:45:43.939Z,17.92
2022-10-13T08:49:08.220Z,21.92
2022-10-13T08:52:15.644Z,17.67
2022-10-13T08:55:56.175Z,12.52
2022-10-13T08:59:16.291Z,14.18
2022-10-13T09:02:57.394Z,13.85
2022-10-13T09:09:55.060Z,13.55
2022-10-13T09:11:19.735Z,11.23
2022-10-13T09:14:19.120Z,12.18
2022-10-13T09:17:48.146Z,12.20
2022-10-13T09:20:56.358Z,14.63
2022-10-13T09:27:25.364Z,16.00
2022-10-13T09:31:04.141Z,13.65
2022-10-13T09:34:52.400Z,15.30
2022-10-13T09:41:44.184Z,16.20
2022-10-13T09:48:57.418Z,14.27
2022-10-13T09:52:41.839Z,11.75
2022-10-13T09:56:15.317Z,16.70
2022-10-13T09:59:41.904Z,14.77
2022-10-13T10:03:00.580Z,15.95
2022-10-13T10:06:28.027Z,16.55
2022-10-13T10:13:04.522Z,14.55
2022-10-13T10:16:27.013Z,13.93
2022-10-13T10:20:14.985Z,13.55
2022-10-13T10:23:51.512Z,19.42
2022-10-13T10:27:11.022Z,17.13
2022-10-13T10:30:36.538Z,15.73
2022-10-13T10:33:49.268Z,18.00
2022-10-13T10:37:13.877Z,13.63
2022-10-13T10:40:46.645Z,17.90
2022-10-13T10:47:59.410Z,15.55
2022-10-13T10:51:33.666Z,14.77
2022-10-13T10:55:06.282Z,16.52
2022-10-13T11:02:14.595Z,14.48
2022-10-13T11:05:25.839Z,15.45
2022-10-13T11:08:59.877Z,17.40
2022-10-13T11:12:15.901Z,16.92
2022-10-13T11:15:45.928Z,12.63
2022-10-13T11:19:14.816Z,14.02
2022-10-13T11:22:23.365Z,14.18
2022-10-13T11:25:25.612Z,16.80
2022-10-13T11:27:53.833Z,15.68
2022-10-13T11:30:52.950Z,31.98
2022-10-13T11:33:56.460Z,27.45
2022-10-13T11:36:49.538Z,16.67
2022-10-13T11:39:41.681Z,21.50
2022-10-13T11:42:25.302Z,16.95
2022-10-13T11:44:56.867Z,14.75
2022-10-13T11:48:04.014Z,21.60
2022-10-13T11:50:41.120Z,21.85
2022-10-13T11:53:17.752Z,17.48
2022-10-13T11:55:51.624Z,23.17
2022-10-13T11:58:23.973Z,17.88
2022-10-13T12:00:54.934Z,15.70
2022-10-13T12:03:25.651Z,14.50
2022-10-13T12:05:54.870Z,15.82
2022-10-13T12:09:11.136Z,24.10
2022-10-13T12:12:22.565Z,23.55
2022-10-13T12:15:57.620Z,14.57
2022-10-13T12:19:10.923Z,15.27
2022-10-13T12:22:29.283Z,15.27
2022-10-13T12:26:26.660Z,16.77
2022-10-13T12:29:57.114Z,18.48
2022-10-13T12:33:02.866Z,15.95
2022-10-13T12:37:13.667Z,17.98
2022-10-13T12:40:40.418Z,15.88
2022-10-13T12:44:03.894Z,14.32
2022-10-13T12:47:15.889Z,19.30
2022-10-13T12:50:59.419Z,15.50
2022-10-13T12:54:22.504Z,12.73
2022-10-13T12:57:41.194Z,15.98
2022-10-13T13:00:52.760Z,15.82
2022-10-13T13:04:11.207Z,13.88
2022-10-13T13:07:17.816Z,14.70
2022-10-13T13:14:11.403Z,19.67
2022-10-13T13:17:57.926Z,22.35
2022-10-13T13:21:24.812Z,20.63
2022-10-13T13:28:23.537Z,14.77
2022-10-13T13:34:55.526Z,9.93
2022-10-13T13:37:32.863Z,13.40
2022-10-13T13:40:01.954Z,12.35
2022-10-13T13:42:31.614Z,11.73
2022-10-13T13:44:59.936Z,13.57
2022-10-13T13:47:29.762Z,11.27
2022-10-13T13:49:58.926Z,16.95
2022-10-13T13:52:29.362Z,12.65
2022-10-13T13:54:57.572Z,13.98
2022-10-13T13:57:25.827Z,13.75
2022-10-13T13:59:55.539Z,15.50
2022-10-13T14:02:23.808Z,12.07
2022-10-13T14:04:53.385Z,15.27
2022-10-13T14:07:21.976Z,16.15
2022-10-13T14:09:50.606Z,13.77
2022-10-13T14:12:19.128Z,19.92
2022-10-13T14:14:47.557Z,15.70
2022-10-13T14:17:17.142Z,14.80
2022-10-13T14:19:45.415Z,15.35
2022-10-13T14:22:13.662Z,15.80
2022-10-13T14:24:41.913Z,17.73
2022-10-13T14:27:10.469Z,16.67
2022-10-13T14:29:38.766Z,19.08
2022-10-13T14:32:07.288Z,19.50
2022-10-13T14:35:37.317Z,18.02
2022-10-13T14:38:35.868Z,21.98
2022-10-13T14:41:05.247Z,17.92
2022-10-13T14:43:34.202Z,24.73
2022-10-13T14:46:03.578Z,17.85
2022-10-13T14:48:33.932Z,20.58
2022-10-13T14:51:05.984Z,21.83
2022-10-13T14:53:36.948Z,18.50
2022-10-13T14:56:19.432Z,22.90
2022-10-13T14:58:49.730Z,21.17
2022-10-13T15:01:21.164Z,26.30
2022-10-13T15:03:49.763Z,22.70
2022-10-13T15:06:19.916Z,25.98
2022-10-13T15:08:49.972Z,18.67
2022-10-13T15:11:20.082Z,20.77
2022-10-13T15:13:48.630Z,25.38
2022-10-13T15:16:19.446Z,26.88
2022-10-13T15:18:48.106Z,32.63
2022-10-13T15:21:17.084Z,32.58
2022-10-13T15:23:45.450Z,29.35
2022-10-13T15:26:17.588Z,33.20
2022-10-13T15:28:47.682Z,40.40
2022-10-13T15:31:17.119Z,32.95
2022-10-13T15:33:47.181Z,27.98
2022-10-13T15:36:16.153Z,28.55
2022-10-13T15:38:44.680Z,26.88
2022-10-13T15:43:00.268Z,27.65
2022-10-13T15:46:16.929Z,22.00
2022-10-13T15:49:18.246Z,23.60
2022-10-13T15:52:36.309Z,25.88
2022-10-13T15:55:31.257Z,28.90
2022-10-13T16:01:49.169Z,22.63
2022-10-13T16:04:58.800Z,19.30
2022-10-13T16:07:27.038Z,20.42
2022-10-13T16:09:55.314Z,23.05
2022-10-13T16:12:24.274Z,25.30
2022-10-13T16:14:54.311Z,22.15
2022-10-13T16:17:23.007Z,22.35
2022-10-13T16:19:51.452Z,27.80
2022-10-13T16:22:48.240Z,26.05
2022-10-13T16:26:23.181Z,24.98
2022-10-13T16:29:47.443Z,31.77
2022-10-13T16:32:54.654Z,34.42
2022-10-13T16:39:43.782Z,35.95
2022-10-13T16:43:12.926Z,32.42
2022-10-13T16:46:22.618Z,39.38
2022-10-13T16:49:50.282Z,36.00
2022-10-13T16:53:02.895Z,34.03
2022-10-13T16:57:37.626Z,35.03
2022-10-13T16:59:58.767Z,37.83
2022-10-13T17:03:09.854Z,40.58
2022-10-13T17:09:53.378Z,44.25
2022-10-13T17:13:28.688Z,39.30
2022-10-13T17:20:05.773Z,50.75
2022-10-13T17:23:21.548Z,42.45
2022-10-13T17:26:25.678Z,51.72
2022-10-13T17:29:29.595Z,50.88
2022-10-13T17:32:40.592Z,49.03
2022-10-13T17:35:41.150Z,45.97
2022-10-13T17:40:03.887Z,50.50
2022-10-13T17:43:40.732Z,50.17
2022-10-13T17:50:18.558Z,51.85
2022-10-13T17:53:50.045Z,47.33
2022-10-13T17:56:47.980Z,51.75
2022-10-13T18:00:15.357Z,57.92
2022-10-13T18:03:30.811Z,55.78
2022-10-13T18:06:51.215Z,53.72
2022-10-13T18:13:17.681Z,45.55
2022-10-13T18:17:42.111Z,47.83
2022-10-13T18:27:28.871Z,55.10
2022-10-13T18:30:57.700Z,52.55
2022-10-13T18:34:11.337Z,57.70
2022-10-13T18:37:56.434Z,53.33
2022-10-13T18:41:09.198Z,49.35
2022-10-13T18:44:38.100Z,52.05
2022-10-13T18:47:56.608Z,53.13
2022-10-13T18:58:14.167Z,45.63
2022-10-13T19:01:50.896Z,85.63
2022-10-13T19:04:50.846Z,68.07
2022-10-13T19:08:09.677Z,47.53
2022-10-13T19:11:25.469Z,48.35
2022-10-13T19:15:12.513Z,43.00
2022-10-13T19:19:09.773Z,47.47
2022-10-13T19:26:14.668Z,43.85
2022-10-13T19:29:19.292Z,42.80
2022-10-13T19:32:25.882Z,42.88
2022-10-13T19:36:23.738Z,44.92
2022-10-13T19:39:48.640Z,40.88
2022-10-13T19:43:31.548Z,41.65
2022-10-13T19:46:28.478Z,47.75
2022-10-13T19:49:48.333Z,36.40
2022-10-13T19:53:13.943Z,36.28
2022-10-13T19:56:41.909Z,43.28
2022-10-13T20:00:26.792Z,39.33
2022-10-13T20:03:40.307Z,36.45
2022-10-13T20:07:09.962Z,39.13
2022-10-13T20:13:58.219Z,36.92
2022-10-13T20:17:09.202Z,38.60
2022-10-13T20:20:22.356Z,49.72
2022-10-13T20:23:33.462Z,42.25
2022-10-13T20:27:09.592Z,41.75
2022-10-13T20:30:16.372Z,37.60
2022-10-13T20:37:29.131Z,42.90
2022-10-13T20:40:48.631Z,37.72
2022-10-13T20:44:22.289Z,43.03
2022-10-13T20:47:43.664Z,43.58
2022-10-13T20:50:43.861Z,41.03
2022-10-13T20:57:10.339Z,44.35
2022-10-13T21:00:43.181Z,48.40
2022-10-13T21:04:19.386Z,49.90
2022-10-13T21:14:31.091Z,55.65
2022-10-13T21:17:42.548Z,49.78
2022-10-13T21:21:02.691Z,54.67
2022-10-13T21:24:40.248Z,58.05
2022-10-13T21:28:13.958Z,50.45
2022-10-13T21:31:41.864Z,56.08
2022-10-13T21:34:47.912Z,52.42
2022-10-13T21:38:20.940Z,54.55
2022-10-13T21:41:56.376Z,61.63
2022-10-13T21:48:38.379Z,59.22
2022-10-13T21:52:09.782Z,65.85
2022-10-13T21:55:58.711Z,63.92
2022-10-13T21:59:41.195Z,63.88
2022-10-13T22:03:23.843Z,56.45
2022-10-13T22:06:55.296Z,62.22
2022-10-13T22:10:06.626Z,65.32
2022-10-13T22:13:26.741Z,66.95
2022-10-13T22:16:54.693Z,67.45
2022-10-13T22:23:13.781Z,68.45
2022-10-13T22:26:19.581Z,68.35
2022-10-13T22:29:35.742Z,71.10
2022-10-13T22:36:31.981Z,64.90
2022-10-13T22:39:44.936Z,67.78
2022-10-13T22:42:49.235Z,72.80
2022-10-13T22:45:49.321Z,70.50
2022-10-13T22:49:57.243Z,67.28
2022-10-13T22:53:39.027Z,59.42
2022-10-13T23:00:16.628Z,69.43
2022-10-13T23:03:48.886Z,64.55
2022-10-13T23:08:18.209Z,63.53
2022-10-13T23:14:47.444Z,59.15
2022-10-13T23:18:10.723Z,56.28
2022-10-13T23:21:18.005Z,64.10
2022-10-13T23:24:35.589Z,54.65
2022-10-13T23:28:17.726Z,54.75
2022-10-13T23:34:44.098Z,55.92
2022-10-13T23:38:11.031Z,51.35
2022-10-13T23:41:41.783Z,51.97
2022-10-13T23:45:17.514Z,54.33
2022-10-13T23:48:24.095Z,53.85
2022-10-13T23:51:42.680Z,50.35
2022-10-13T23:54:59.940Z,53.78
2022-10-13T23:58:13.511Z,50.83
